createdAt,value
2022-10-19T00:01:23.726Z,10.45
2022-10-19T00:03:56.076Z,10.48
2022-10-19T00:06:31.471Z,10.52
2022-10-19T00:09:15.364Z,10.48
2022-10-19T00:11:47.859Z,10.49
2022-10-19T00:14:21.933Z,10.47
2022-10-19T00:16:52.872Z,10.51
2022-10-19T00:19:28.001Z,10.52
2022-10-19T00:21:57.567Z,10.54
2022-10-19T00:24:24.227Z,10.46
2022-10-19T00:26:50.864Z,10.51
2022-10-19T00:29:17.864Z,10.58
2022-10-19T00:31:44.749Z,10.56
2022-10-19T00:34:12.042Z,10.57
2022-10-19T00:36:41.564Z,10.59
2022-10-19T00:39:14.533Z,10.53
2022-10-19T00:41:46.992Z,10.55
2022-10-19T00:44:13.758Z,10.55
2022-10-19T00:46:45.702Z,10.52
2022-10-19T00:49:26.108Z,10.49
2022-10-19T00:52:16.206Z,10.48
2022-10-19T00:54:46.609Z,10.47
2022-10-19T00:57:15.013Z,10.46
2022-10-19T00:59:47.411Z,10.47
2022-10-19T01:02:14.503Z,10.46
2022-10-19T01:04:51.812Z,10.40
2022-10-19T01:07:20.616Z,10.41
2022-10-19T01:09:47.508Z,10.40
2022-10-19T01:12:41.746Z,10.44
2022-10-19T01:15:35.088Z,10.44
2022-10-19T01:18:13.518Z,10.45
2022-10-19T01:21:26.002Z,10.43
2022-10-19T01:24:14.257Z,10.49
2022-10-19T01:27:53.083Z,10.49
2022-10-19T01:30:54.437Z,10.47
2022-10-19T01:33:50.679Z,10.49
2022-10-19T01:36:53.505Z,10.48
2022-10-19T01:39:59.544Z,10.50
2022-10-19T01:42:49.586Z,10.50
2022-10-19T01:45:50.043Z,10.49
2022-10-19T01:48:34.642Z,10.47
2022-10-19T01:51:33.881Z,10.46
2022-10-19T01:54:10.195Z,10.45
2022-10-19T01:56:45.715Z,10.44
2022-10-19T01:59:19.625Z,10.33
2022-10-19T02:01:53.940Z,10.38
2022-10-19T02:04:24.988Z,10.36
2022-10-19T02:06:55.441Z,10.38
2022-10-19T02:09:22.729Z,10.32
2022-10-19T02:12:00.745Z,10.17
2022-10-19T02:14:37.164Z,9.95
2022-10-19T02:17:19.107Z,9.80
2022-10-19T02:19:46.059Z,9.63
2022-10-19T02:22:13.918Z,9.46
2022-10-19T02:24:40.614Z,9.30
2022-10-19T02:27:09.466Z,9.12
2022-10-19T02:29:39.726Z,8.95
2022-10-19T02:32:09.919Z,8.94
2022-10-19T02:34:39.383Z,8.93
2022-10-19T02:37:07.480Z,8.92
2022-10-19T02:39:34.702Z,8.92
2022-10-19T02:42:23.561Z,8.88
2022-10-19T02:45:06.816Z,8.82
2022-10-19T02:48:00.788Z,8.77
2022-10-19T02:50:29.146Z,8.77
2022-10-19T02:52:59.715Z,8.68
2022-10-19T02:55:26.444Z,8.62
2022-10-19T02:57:53.795Z,8.54
2022-10-19T03:00:20.759Z,8.52
2022-10-19T03:02:50.150Z,8.51
2022-10-19T03:05:17.013Z,8.49
2022-10-19T03:07:43.871Z,8.44
2022-10-19T03:10:10.803Z,8.51
2022-10-19T03:12:37.557Z,8.55
2022-10-19T03:15:05.585Z,8.68
2022-10-19T03:17:32.624Z,8.75
2022-10-19T03:19:59.691Z,8.80
2022-10-19T03:22:26.406Z,8.81
2022-10-19T03:24:53.121Z,8.79
2022-10-19T03:27:19.837Z,8.86
2022-10-19T03:29:46.548Z,8.89
2022-10-19T03:32:13.287Z,8.99
2022-10-19T03:34:40.019Z,9.08
2022-10-19T03:37:08.487Z,9.15
2022-10-19T03:39:35.751Z,9.21
2022-10-19T03:42:02.405Z,9.28
2022-10-19T03:44:29.173Z,9.32
2022-10-19T03:46:56.101Z,9.41
2022-10-19T03:49:22.830Z,9.44
2022-10-19T03:51:49.703Z,9.45
2022-10-19T03:54:17.579Z,9.44
2022-10-19T03:56:44.599Z,9.49
2022-10-19T03:59:15.838Z,9.48
2022-10-19T04:01:48.295Z,9.51
2022-10-19T04:04:18.969Z,9.50
2022-10-19T04:06:49.896Z,9.49
2022-10-19T04:09:21.632Z,9.53
2022-10-19T04:11:50.240Z,9.54
2022-10-19T04:14:31.655Z,9.58
2022-10-19T04:17:03.074Z,9.60
2022-10-19T04:19:30.023Z,9.63
2022-10-19T04:21:56.951Z,9.65
2022-10-19T04:24:24.037Z,9.65
2022-10-19T04:26:54.971Z,9.68
2022-10-19T04:29:29.518Z,9.72
2022-10-19T04:31:58.930Z,9.68
2022-10-19T04:34:25.705Z,9.67
2022-10-19T04:36:53.972Z,9.65
2022-10-19T04:39:23.811Z,9.63
2022-10-19T04:41:50.532Z,9.65
2022-10-19T04:44:17.304Z,9.66
2022-10-19T04:46:43.994Z,9.63
2022-10-19T04:49:10.864Z,9.55
2022-10-19T04:51:40.160Z,9.48
2022-10-19T04:54:06.888Z,9.48
2022-10-19T05:18:06.032Z,9.32
2022-10-19T05:20:32.892Z,9.31
2022-10-19T05:23:06.234Z,9.32
2022-10-19T05:25:38.500Z,9.28
2022-10-19T05:33:33.935Z,9.29
2022-10-19T05:36:10.637Z,9.29
2022-10-19T05:41:20.641Z,9.25
2022-10-19T05:52:00.783Z,8.82
2022-10-19T06:35:03.473Z,8.68
2022-10-19T06:40:12.256Z,8.86
2022-10-19T06:48:07.629Z,8.88
2022-10-19T06:50:46.508Z,8.90
2022-10-19T06:55:58.799Z,9.14
2022-10-19T07:11:59.772Z,9.91
2022-10-19T07:14:32.308Z,10.15
2022-10-19T07:19:39.917Z,11.17
2022-10-19T07:22:09.017Z,11.51
2022-10-19T07:24:36.301Z,11.48
2022-10-19T07:32:25.297Z,10.92
2022-10-19T07:37:38.974Z,11.65
2022-10-19T07:45:33.053Z,12.59
2022-10-19T07:48:00.792Z,12.88
2022-10-19T07:53:11.816Z,13.26
2022-10-19T08:06:55.646Z,14.93
2022-10-19T08:09:50.965Z,15.49
2022-10-19T08:12:14.619Z,15.73
2022-10-19T08:54:04.951Z,16.53
2022-10-19T09:00:08.309Z,15.52
2022-10-19T09:03:13.258Z,15.47
2022-10-19T09:06:40.838Z,15.88
2022-10-19T09:09:14.618Z,15.78
2022-10-19T09:15:27.591Z,16.00
2022-10-19T09:17:56.986Z,15.95
2022-10-19T09:20:44.822Z,15.89
2022-10-19T09:29:46.240Z,16.41
2022-10-19T09:35:43.648Z,16.84
2022-10-19T09:38:19.825Z,16.95
2022-10-19T09:40:46.683Z,17.20
2022-10-19T09:43:21.100Z,17.25
2022-10-19T09:46:11.599Z,16.84
2022-10-19T09:48:59.088Z,17.10
2022-10-19T09:51:26.287Z,16.90
2022-10-19T10:05:15.685Z,17.30
2022-10-19T10:16:16.431Z,16.04
2022-10-19T10:19:05.316Z,15.82
2022-10-19T10:21:50.875Z,16.36
2022-10-19T10:24:22.738Z,16.61
2022-10-19T10:26:59.942Z,16.92
2022-10-19T10:29:36.980Z,16.72
2022-10-19T10:35:01.350Z,16.37
2022-10-19T10:40:32.569Z,16.71
2022-10-19T10:49:32.177Z,16.80
2022-10-19T10:52:09.852Z,16.76
2022-10-19T11:00:16.493Z,17.19
2022-10-19T11:03:05.120Z,16.49
2022-10-19T11:05:48.153Z,16.10
2022-10-19T11:08:51.462Z,17.20
2022-10-19T11:11:30.489Z,17.49
2022-10-19T11:14:23.632Z,17.66
2022-10-19T11:16:55.359Z,17.59
2022-10-19T11:19:31.602Z,18.44
2022-10-19T11:22:44.756Z,18.42
2022-10-19T11:25:53.547Z,18.51
2022-10-19T11:28:32.201Z,18.66
2022-10-19T11:31:29.711Z,18.40
2022-10-19T11:34:49.466Z,18.58
2022-10-19T11:37:37.537Z,18.69
2022-10-19T11:41:19.396Z,18.03
2022-10-19T11:44:15.797Z,17.34
2022-10-19T11:47:30.160Z,17.25
2022-10-19T11:50:25.069Z,16.53
2022-10-19T11:53:25.860Z,15.79
2022-10-19T11:57:02.218Z,15.87
2022-10-19T12:00:34.172Z,16.20
2022-10-19T12:03:52.001Z,16.42
2022-10-19T12:07:16.885Z,16.24
2022-10-19T12:10:11.860Z,16.30
2022-10-19T12:12:47.743Z,15.28
2022-10-19T12:15:48.278Z,15.46
2022-10-19T12:18:55.646Z,15.11
2022-10-19T12:21:40.810Z,15.05
2022-10-19T12:24:22.745Z,14.75
2022-10-19T12:26:54.125Z,14.78
2022-10-19T12:29:33.232Z,14.69
2022-10-19T12:32:04.721Z,14.57
2022-10-19T12:35:00.494Z,14.57
2022-10-19T12:37:50.569Z,14.62
2022-10-19T12:40:38.576Z,14.62
2022-10-19T12:43:24.433Z,14.55
2022-10-19T12:46:06.384Z,14.47
2022-10-19T12:48:36.271Z,14.61
2022-10-19T12:51:11.894Z,14.62
2022-10-19T12:53:47.709Z,14.67
2022-10-19T12:56:27.286Z,14.56
2022-10-19T12:59:01.627Z,14.51
2022-10-19T13:01:34.272Z,14.39
2022-10-19T13:04:24.786Z,14.34
2022-10-19T13:06:57.819Z,14.45
2022-10-19T13:09:34.531Z,14.31
2022-10-19T13:12:32.948Z,14.42
2022-10-19T13:15:04.782Z,14.57
2022-10-19T13:17:34.843Z,14.56
2022-10-19T13:20:14.175Z,14.25
2022-10-19T13:22:50.153Z,14.05
2022-10-19T13:25:17.033Z,13.98
2022-10-19T13:27:46.852Z,14.22
2022-10-19T13:30:35.475Z,14.32
2022-10-19T13:33:33.018Z,14.24
2022-10-19T13:35:59.589Z,14.21
2022-10-19T13:38:50.649Z,14.19
2022-10-19T13:41:21.693Z,14.27
2022-10-19T13:44:16.653Z,14.23
2022-10-19T13:47:29.399Z,14.21
2022-10-19T13:51:06.329Z,14.03
2022-10-19T13:54:00.852Z,14.10
2022-10-19T13:56:50.705Z,14.13
2022-10-19T13:59:53.772Z,14.24
2022-10-19T14:02:48.108Z,14.37
2022-10-19T14:06:22.352Z,14.32
2022-10-19T14:09:12.917Z,14.46
2022-10-19T14:11:51.663Z,13.52
2022-10-19T14:14:24.291Z,13.59
2022-10-19T14:17:03.939Z,14.10
2022-10-19T14:19:52.493Z,14.18
2022-10-19T14:22:30.082Z,14.08
2022-10-19T14:25:22.087Z,14.25
2022-10-19T14:28:04.906Z,14.43
2022-10-19T14:30:36.379Z,14.55
2022-10-19T14:33:11.474Z,14.40
2022-10-19T14:35:45.696Z,14.04
2022-10-19T14:38:24.026Z,14.19
2022-10-19T14:40:50.782Z,14.22
2022-10-19T14:43:25.312Z,14.61
2022-10-19T14:46:07.168Z,14.88
2022-10-19T14:48:45.628Z,15.20
2022-10-19T14:51:47.389Z,14.99
2022-10-19T14:54:29.263Z,15.08
2022-10-19T14:57:15.880Z,15.35
2022-10-19T15:00:01.183Z,14.18
2022-10-19T15:02:42.658Z,13.57
2022-10-19T15:05:23.732Z,12.91
2022-10-19T15:07:51.705Z,12.27
2022-10-19T15:10:40.930Z,11.81
2022-10-19T15:13:21.604Z,11.44
2022-10-19T15:15:53.847Z,11.10
2022-10-19T15:18:47.753Z,10.78
2022-10-19T15:21:22.963Z,10.50
2022-10-19T15:23:52.992Z,10.35
2022-10-19T15:26:28.509Z,10.20
2022-10-19T15:29:10.006Z,10.10
2022-10-19T15:31:36.711Z,9.95
2022-10-19T15:34:05.357Z,9.84
2022-10-19T15:36:33.218Z,9.73
2022-10-19T15:39:24.665Z,9.62
2022-10-19T15:44:47.265Z,9.31
2022-10-19T15:50:06.505Z,9.04
2022-10-19T15:52:36.013Z,8.93
2022-10-19T16:00:36.977Z,8.64
2022-10-19T16:05:45.044Z,8.31
2022-10-19T16:08:14.870Z,8.10
2022-10-19T16:16:11.656Z,7.27
2022-10-19T16:18:38.857Z,7.01
2022-10-19T16:21:06.864Z,6.76
2022-10-19T16:42:29.673Z,5.46
2022-10-19T16:45:05.688Z,5.35
2022-10-19T17:14:49.401Z,4.72
2022-10-19T17:17:17.534Z,4.68
2022-10-19T17:28:02.353Z,4.45
2022-10-19T17:30:29.314Z,4.43
2022-10-19T18:08:10.224Z,3.99
2022-10-19T18:32:39.677Z,3.69
2022-10-19T18:35:10.283Z,3.70
2022-10-19T18:37:37.006Z,3.67
2022-10-19T18:40:07.230Z,3.63
2022-10-19T18:42:36.656Z,3.63
2022-10-19T18:45:04.683Z,3.68
2022-10-19T18:47:31.450Z,3.61
2022-10-19T18:50:01.389Z,3.52
2022-10-19T18:52:28.400Z,3.44
2022-10-19T18:54:57.828Z,3.41
2022-10-19T18:57:28.284Z,3.34
2022-10-19T19:05:23.252Z,3.27
2022-10-19T19:07:55.349Z,3.28
2022-10-19T19:10:22.187Z,3.30
2022-10-19T19:23:37.881Z,3.19
2022-10-19T19:28:49.204Z,3.15
2022-10-19T19:31:19.553Z,3.10
2022-10-19T19:33:50.651Z,3.04
2022-10-19T20:46:32.612Z,3.04
2022-10-19T20:49:01.933Z,3.22
2022-10-19T20:51:36.729Z,3.49
2022-10-19T20:54:09.930Z,3.52
2022-10-19T20:56:40.060Z,3.67
2022-10-19T20:59:14.724Z,3.81
2022-10-19T21:01:44.712Z,4.06
2022-10-19T21:04:14.532Z,4.13
2022-10-19T21:06:46.025Z,4.14
2022-10-19T21:09:21.707Z,4.44
2022-10-19T21:11:51.926Z,4.45
2022-10-19T21:14:28.758Z,4.35
2022-10-19T21:17:04.848Z,4.37
2022-10-19T21:19:31.737Z,4.32
2022-10-19T21:22:02.329Z,4.35
2022-10-19T21:24:36.448Z,4.26
2022-10-19T21:27:08.878Z,4.21
2022-10-19T21:29:36.896Z,4.15
2022-10-19T21:32:04.278Z,4.24
2022-10-19T21:34:32.334Z,4.33
2022-10-19T21:36:59.887Z,4.34
2022-10-19T21:39:26.725Z,4.43
2022-10-19T21:41:53.756Z,4.40
2022-10-19T21:44:23.479Z,4.35
2022-10-19T21:46:50.678Z,4.64
2022-10-19T21:49:18.497Z,4.84
2022-10-19T21:51:53.708Z,4.93
2022-10-19T21:54:29.297Z,4.85
2022-10-19T21:57:01.284Z,4.81
2022-10-19T21:59:27.970Z,4.70
2022-10-19T22:01:56.276Z,4.65
2022-10-19T22:04:23.748Z,4.58
2022-10-19T22:06:50.785Z,4.58
2022-10-19T22:09:23.143Z,4.59
2022-10-19T22:11:49.878Z,4.59
2022-10-19T22:14:18.072Z,4.54
2022-10-19T22:16:45.201Z,5.10
2022-10-19T22:19:12.684Z,5.13
2022-10-19T22:21:40.460Z,5.49
2022-10-19T22:24:16.705Z,5.42
2022-10-19T22:26:50.520Z,5.56
2022-10-19T22:29:17.512Z,5.99
2022-10-19T22:31:46.757Z,6.24
2022-10-19T22:34:17.448Z,6.22
2022-10-19T22:36:44.945Z,6.05
2022-10-19T22:39:15.900Z,5.95
2022-10-19T22:41:52.615Z,5.89
2022-10-19T22:44:19.246Z,5.74
2022-10-19T22:46:49.075Z,5.45
2022-10-19T22:49:18.701Z,5.41
2022-10-19T22:51:48.492Z,5.45
2022-10-19T22:54:16.283Z,5.42
2022-10-19T22:56:46.094Z,5.43
2022-10-19T22:59:12.733Z,5.37
2022-10-19T23:01:39.447Z,5.25
2022-10-19T23:04:06.423Z,5.03
2022-10-19T23:06:33.216Z,4.79
2022-10-19T23:08:59.916Z,4.62
2022-10-19T23:11:26.720Z,4.63
2022-10-19T23:13:53.581Z,4.59
2022-10-19T23:16:20.433Z,4.60
2022-10-19T23:18:47.177Z,4.75
2022-10-19T23:21:15.083Z,4.79
2022-10-19T23:23:42.868Z,4.97
2022-10-19T23:26:20.207Z,5.00
2022-10-19T23:28:49.820Z,5.05
2022-10-19T23:31:24.464Z,5.11
2022-10-19T23:33:53.961Z,5.19
2022-10-19T23:36:28.925Z,5.27
2022-10-19T23:39:03.170Z,5.28
2022-10-19T23:41:29.706Z,5.30
2022-10-19T23:43:56.362Z,5.26
2022-10-19T23:46:23.136Z,5.28
2022-10-19T23:48:49.824Z,5.25
2022-10-19T23:51:20.711Z,5.18
2022-10-19T23:53:53.517Z,5.29
2022-10-19T23:56:28.359Z,5.54
2022-10-19T23:58:57.892Z,5.53
